Alamo, GA

3:31 PM EDT on June 25, 2017 (GMT -0400)
Mock Hill | | Change Station

Elev 210 ft 32.17 °N, 82.59 °W | Updated 7 seconds ago

Mostly Cloudy
Mostly Cloudy
89.2 °F
Feels Like 126 °F
N
4.7
Wind Variable Wind from NNW

Today
High -- | Low -- °F
--% Chance of Precip.
Yesterday
High -- | Low -- °F
Precip. -- in
Pressure 30.08 in
Visibility 10.0 miles
Clouds Scattered Clouds 3000 ft
Scattered Clouds 4800 ft
Scattered Clouds 6000 ft
Heat Index 126 °F
Dew Point 89 °F
Humidity 99%
Rainfall 0.91 in
Snow Depth Not available.
6:26 AM 8:41 PM
Waxing Crescent, 4% visible
METAR KEZM 251915Z AUTO 33005KT 10SM SCT030 SCT048 SCT060 32/18 A3008 RMK AO2 LTG DSNT S AND SW T03200183
Pressure 30.08 in
Visibility 10.0 miles
Clouds Scattered Clouds 3000 ft
Scattered Clouds 4800 ft
Scattered Clouds 6000 ft
Heat Index 126 °F
Dew Point 89 °F
Humidity 99%
Rainfall 0.91 in
Snow Depth Not available.
6:26 AM 8:41 PM
Waxing Crescent, 4% visible
METAR KEZM 251915Z AUTO 33005KT 10SM SCT030 SCT048 SCT060 32/18 A3008 RMK AO2 LTG DSNT S AND SW T03200183

Get Severe Weather Alerts

Thanks for signing up!

Be on the lookout for a verification email in your inbox.

You'll start receiving the daily forecast at 6 AM.

×

10-Day Weather Forecast

Almanac

Astronomy

Jun. 25, 2017 Rise Set
Actual Time
Civil Twilight
Nautical Twilight
Astronomical Twilight
Moon
Length of Visible Light
Length of Day
Tomorrow will be .
, % of the Moon is Illuminated

Today's Extremes

State Highs State Lows

Community

WunderPhotos

Category 6

Welcome to Category 6. This is the collective home for Weather Underground's featured writeups by Dr. Jeff Masters (right), Bob Henson (left), Chris Burt, and other regular contributors.

Nearby

Air Quality

  Air Quality AQ Index Pollutant
Not available.

Snow Depth

Station Depth Elevation

Earthquake Activity

City Distance Mag. Time & Date
Minimum magnitude displayed is 2.5.

Coastal Water Temperatures

Place Temperature

Stations

Nearby Weather Stations

Station Location Temp. Windchill Dew Point Humidity Wind Precip. Elev Updated Type
                   

Watches & Warnings

There are currently no watches in effect.